Time;durP1;ratioP1;P1;durP2;ratioP2;P2;SDS_P1;SDS_P2;PMS_P1;PMS_P2;Temp;Humidity;BMP_temperature;BMP_pressure;BME280_temperature;BME280_humidity;BME280_pressure;Samples;Min_cycle;Max_cycle;Signal;HPM_P1;HPM_P2
2022/11/18 00:01:15;;;;;;;16.98;15.13;;;7.00;99.90;;;;;;4970981;28;20058;-75
2022/11/18 00:03:42;;;;;;;21.20;17.85;;;6.60;99.90;;;;;;4986878;28;20058;-77
2022/11/18 00:06:17;;;;;;;18.77;16.50;;;6.60;99.90;;;;;;4970393;28;20257;-76
2022/11/18 00:08:43;;;;;;;21.38;18.52;;;6.70;99.90;;;;;;4970152;28;20038;-76
2022/11/18 00:14:17;;;;;;;19.52;16.63;;;6.70;99.90;;;;;;4988123;28;20122;-77
2022/11/18 00:14:20;;;;;;;20.75;18.00;;;6.90;99.90;;;;;;4987965;28;20141;-76
2022/11/18 00:16:50;;;;;;;23.67;19.48;;;6.70;99.90;;;;;;4987552;28;20088;-77
2022/11/18 00:19:16;;;;;;;21.92;19.13;;;6.90;99.90;;;;;;4969655;28;20126;-77
2022/11/18 00:21:42;;;;;;;21.42;18.92;;;7.20;99.90;;;;;;4970213;28;20050;-76
2022/11/18 00:24:08;;;;;;;24.95;19.88;;;7.10;99.90;;;;;;4987548;28;20035;-76
2022/11/18 00:26:35;;;;;;;26.02;22.23;;;7.20;99.90;;;;;;4988208;28;20123;-77
2022/11/18 00:29:01;;;;;;;26.42;21.58;;;7.10;99.90;;;;;;4987454;28;20081;-76
2022/11/18 00:31:27;;;;;;;26.88;20.77;;;7.20;99.90;;;;;;4954477;28;20093;-76
2022/11/18 00:33:53;;;;;;;27.75;22.48;;;6.70;99.90;;;;;;4952807;28;20042;-76
2022/11/18 00:36:18;;;;;;;24.50;21.95;;;7.20;99.90;;;;;;4970386;28;20133;-76
2022/11/18 00:38:44;;;;;;;27.70;23.38;;;7.10;99.90;;;;;;4987523;28;20046;-77
2022/11/18 00:41:12;;;;;;;25.00;21.25;;;7.20;99.90;;;;;;4987355;28;20042;-77
2022/11/18 00:43:38;;;;;;;23.98;21.35;;;7.10;99.90;;;;;;4969686;28;20050;-77
2022/11/18 00:46:06;;;;;;;25.35;22.15;;;7.00;99.90;;;;;;4970040;28;20054;-77
2022/11/18 00:48:32;;;;;;;27.25;22.55;;;7.30;99.90;;;;;;4986836;28;20430;-77
2022/11/18 00:51:05;;;;;;;27.02;22.45;;;6.90;99.90;;;;;;4969473;28;20046;-76
2022/11/18 00:53:31;;;;;;;24.85;22.17;;;6.80;99.90;;;;;;4954227;28;20449;-76
2022/11/18 00:55:56;;;;;;;28.75;23.55;;;7.20;99.90;;;;;;4969534;28;20054;-76
2022/11/18 00:58:22;;;;;;;30.27;25.45;;;7.30;99.90;;;;;;4970061;28;20034;-76
2022/11/18 01:00:50;;;;;;;35.63;26.05;;;6.90;99.90;;;;;;4969322;28;20413;-76
2022/11/18 01:03:17;;;;;;;31.98;24.25;;;7.00;99.90;;;;;;4985842;28;20042;-77
2022/11/18 01:05:42;;;;;;;29.83;22.20;;;6.90;99.90;;;;;;4969412;28;20097;-76
2022/11/18 01:08:09;;;;;;;29.00;23.42;;;7.00;99.90;;;;;;4969256;28;20085;-77
2022/11/18 01:10:37;;;;;;;35.63;25.73;;;7.30;99.90;;;;;;4969948;28;20054;-76
2022/11/18 01:13:19;;;;;;;32.58;25.23;;;7.40;99.90;;;;;;4970080;28;20043;-76
2022/11/18 01:15:53;;;;;;;34.42;24.92;;;7.00;99.90;;;;;;4986540;28;20053;-76
2022/11/18 01:18:28;;;;;;;32.58;24.70;;;7.00;99.90;;;;;;4968423;28;20446;-77
2022/11/18 01:20:59;;;;;;;33.90;25.15;;;7.20;99.90;;;;;;4968918;28;20058;-76
2022/11/18 01:23:25;;;;;;;28.85;23.73;;;7.30;99.90;;;;;;4953136;28;20168;-76
2022/11/18 01:25:51;;;;;;;36.47;24.75;;;7.40;99.90;;;;;;4968360;28;20196;-75
2022/11/18 01:28:17;;;;;;;31.90;24.67;;;7.00;99.90;;;;;;4953104;28;20051;-76
2022/11/18 01:30:44;;;;;;;36.13;25.92;;;7.40;99.90;;;;;;4968926;28;20043;-76
2022/11/18 01:33:11;;;;;;;40.17;25.65;;;7.20;99.90;;;;;;4968205;28;20050;-77
2022/11/18 01:35:42;;;;;;;34.28;26.25;;;7.00;99.90;;;;;;4968595;28;20039;-76
2022/11/18 01:38:10;;;;;;;34.28;25.08;;;7.00;99.90;;;;;;4986268;28;20046;-77
2022/11/18 01:40:36;;;;;;;33.83;25.15;;;7.00;99.90;;;;;;4968862;28;20045;-77
2022/11/18 01:43:10;;;;;;;37.40;26.17;;;7.00;99.90;;;;;;4969430;28;20137;-75
2022/11/18 01:45:37;;;;;;;33.47;25.10;;;7.40;99.90;;;;;;4952354;28;20043;-77
2022/11/18 01:48:12;;;;;;;35.40;25.85;;;7.10;99.90;;;;;;4968467;28;20092;-76
2022/11/18 01:50:43;;;;;;;37.60;25.75;;;7.00;99.90;;;;;;4968691;28;20080;-77
2022/11/18 01:53:15;;;;;;;44.78;25.55;;;7.20;99.90;;;;;;4968809;28;20053;-77
2022/11/18 01:55:45;;;;;;;36.50;25.48;;;7.00;99.90;;;;;;4968081;28;20054;-75
2022/11/18 01:58:17;;;;;;;36.05;27.40;;;6.90;99.90;;;;;;4952397;28;20058;-77
2022/11/18 02:00:43;;;;;;;39.20;25.70;;;7.50;99.90;;;;;;4974874;28;20050;-77
2022/11/18 02:03:08;;;;;;;40.85;28.30;;;7.10;99.90;;;;;;4967530;28;20430;-76
2022/11/18 02:05:35;;;;;;;36.60;27.27;;;7.10;99.90;;;;;;4968932;28;20054;-76
2022/11/18 02:08:01;;;;;;;36.17;26.55;;;7.00;99.90;;;;;;4986127;28;20551;-76
2022/11/18 02:10:27;;;;;;;38.45;26.23;;;7.10;99.90;;;;;;4985854;28;20065;-76
2022/11/18 02:12:55;;;;;;;37.50;25.73;;;7.50;99.90;;;;;;4968291;28;20034;-76
2022/11/18 02:15:45;;;;;;;42.05;26.90;;;7.10;99.90;;;;;;4952330;28;20058;-75
2022/11/18 02:18:29;;;;;;;39.97;27.50;;;7.30;99.90;;;;;;4967887;28;20046;-77
2022/11/18 02:21:21;;;;;;;38.33;27.13;;;7.40;99.90;;;;;;4968182;28;20049;-77
2022/11/18 02:24:17;;;;;;;40.40;28.80;;;7.10;99.90;;;;;;4958410;28;20047;-75
2022/11/18 02:27:04;;;;;;;40.00;27.95;;;7.40;99.90;;;;;;4987030;28;20210;-76
2022/11/18 02:30:08;;;;;;;43.40;28.98;;;7.40;99.90;;;;;;4988016;28;20347;-75
2022/11/18 02:32:45;;;;;;;38.40;28.15;;;7.10;99.90;;;;;;4968845;28;20064;-75
2022/11/18 02:35:32;;;;;;;43.55;27.88;;;7.50;99.90;;;;;;4986795;28;20089;-75
2022/11/18 02:38:18;;;;;;;34.63;25.88;;;7.40;99.90;;;;;;4987029;28;20516;-75
2022/11/18 02:40:48;;;;;;;37.08;28.40;;;7.10;99.90;;;;;;4985013;28;20264;-77
2022/11/18 02:43:34;;;;;;;40.10;27.30;;;7.50;99.90;;;;;;4967127;28;20066;-76
2022/11/18 02:46:07;;;;;;;35.05;23.35;;;7.00;99.90;;;;;;4985417;28;20401;-76
2022/11/18 02:48:36;;;;;;;38.45;28.20;;;7.50;99.90;;;;;;4951364;28;20097;-76
2022/11/18 02:51:05;;;;;;;43.15;29.88;;;7.00;99.90;;;;;;4985386;28;20038;-76
2022/11/18 02:53:32;;;;;;;40.17;28.42;;;7.20;99.90;;;;;;4986033;28;20043;-76
2022/11/18 02:56:00;;;;;;;37.78;26.20;;;7.40;99.90;;;;;;4967827;28;20100;-76
2022/11/18 02:58:26;;;;;;;40.05;26.38;;;7.10;99.90;;;;;;4985225;28;20147;-77
2022/11/18 03:00:53;;;;;;;41.13;28.90;;;7.10;99.90;;;;;;4967405;28;20086;-76
2022/11/18 03:03:29;;;;;;;39.28;28.52;;;7.50;99.90;;;;;;4966700;28;20046;-77
2022/11/18 03:06:14;;;;;;;41.03;27.50;;;7.50;99.90;;;;;;4967673;28;20600;-77
2022/11/18 03:09:04;;;;;;;37.97;26.73;;;7.10;99.90;;;;;;4967073;28;20049;-76
2022/11/18 03:11:36;;;;;;;41.45;28.45;;;7.30;99.90;;;;;;4971093;28;20065;-76
2022/11/18 03:14:51;;;;;;;38.78;26.65;;;7.60;99.90;;;;;;4971936;28;20038;-76
2022/11/18 03:17:48;;;;;;;42.00;28.67;;;7.40;99.90;;;;;;4983281;28;20054;-77
2022/11/18 03:20:23;;;;;;;40.63;28.60;;;7.00;99.90;;;;;;4971452;28;20049;-76
2022/11/18 03:22:54;;;;;;;45.75;29.17;;;7.10;99.90;;;;;;4971284;28;20047;-77
2022/11/18 03:25:35;;;;;;;43.08;27.40;;;6.90;99.90;;;;;;4955574;28;20050;-76
2022/11/18 03:28:18;;;;;;;42.35;29.45;;;7.40;99.90;;;;;;4971143;28;20555;-76
2022/11/18 03:30:57;;;;;;;41.42;26.63;;;7.50;99.90;;;;;;4954743;28;20054;-78
2022/11/18 03:33:29;;;;;;;36.88;26.40;;;6.90;99.90;;;;;;4970964;28;20038;-77
2022/11/18 03:35:56;;;;;;;41.50;26.35;;;7.40;99.90;;;;;;4955024;28;20050;-76
2022/11/18 03:38:30;;;;;;;39.22;28.33;;;7.30;99.90;;;;;;4971121;28;20050;-76
2022/11/18 03:40:59;;;;;;;35.72;25.90;;;7.20;99.90;;;;;;4988521;28;20093;-77
2022/11/18 03:43:30;;;;;;;38.42;26.63;;;6.90;99.90;;;;;;4989243;28;20034;-76
2022/11/18 03:46:20;;;;;;;35.45;26.08;;;7.40;99.90;;;;;;4971033;28;20082;-76
2022/11/18 03:48:55;;;;;;;38.30;25.73;;;7.30;99.90;;;;;;4987707;28;20390;-77
2022/11/18 03:51:45;;;;;;;49.63;30.17;;;7.30;99.90;;;;;;4988257;28;20038;-76
2022/11/18 03:54:17;;;;;;;42.22;26.55;;;7.40;99.90;;;;;;4971194;28;20056;-77
2022/11/18 03:56:52;;;;;;;60.70;28.98;;;7.40;99.90;;;;;;4988378;28;20053;-77
2022/11/18 03:59:24;;;;;;;40.58;28.15;;;7.10;99.90;;;;;;4954631;28;20038;-76
2022/11/18 04:02:07;;;;;;;41.88;28.30;;;7.30;99.90;;;;;;4953871;28;20216;-76
2022/11/18 04:04:33;;;;;;;40.40;28.35;;;6.80;99.90;;;;;;4955367;28;20057;-76
2022/11/18 04:07:40;;;;;;;39.53;28.20;;;7.10;99.90;;;;;;4988535;28;20092;-76
2022/11/18 04:10:15;;;;;;;39.38;23.80;;;7.30;99.90;;;;;;4970767;28;20050;-78
2022/11/18 04:12:49;;;;;;;40.30;24.80;;;7.40;99.90;;;;;;4970823;28;20409;-76
2022/11/18 04:15:15;;;;;;;36.35;25.88;;;7.20;99.90;;;;;;4954316;28;20046;-76
2022/11/18 04:17:41;;;;;;;42.05;27.63;;;7.30;99.90;;;;;;4953850;28;20129;-75
2022/11/18 04:20:19;;;;;;;39.83;26.23;;;6.90;99.90;;;;;;4970574;28;20497;-76
2022/11/18 04:22:45;;;;;;;38.72;26.75;;;7.20;99.90;;;;;;4969265;28;20046;-76
2022/11/18 04:25:11;;;;;;;36.15;25.75;;;7.10;99.90;;;;;;4970821;28;20381;-76
2022/11/18 04:27:37;;;;;;;37.17;27.58;;;7.30;99.90;;;;;;4988225;28;20328;-77
2022/11/18 04:30:04;;;;;;;47.78;29.95;;;6.90;99.90;;;;;;4971034;28;20464;-78
2022/11/18 04:32:30;;;;;;;36.92;26.60;;;7.10;99.90;;;;;;4987231;28;20046;-77
2022/11/18 04:34:55;;;;;;;41.58;27.30;;;7.30;99.90;;;;;;4970022;28;20050;-77
2022/11/18 04:37:21;;;;;;;38.42;27.27;;;6.90;99.90;;;;;;4971051;28;20398;-76
2022/11/18 04:39:46;;;;;;;36.08;26.60;;;6.70;99.90;;;;;;4970217;28;20401;-76
2022/11/18 04:42:12;;;;;;;36.13;24.95;;;7.20;99.90;;;;;;4970894;28;20507;-77
2022/11/18 04:44:38;;;;;;;38.90;28.50;;;6.80;99.90;;;;;;4987958;28;20138;-76
2022/11/18 04:47:05;;;;;;;43.03;26.55;;;6.60;99.90;;;;;;4953825;28;20046;-77
2022/11/18 04:49:32;;;;;;;35.00;25.70;;;7.00;99.90;;;;;;4954217;28;20145;-76
2022/11/18 04:51:58;;;;;;;36.40;25.25;;;6.70;99.90;;;;;;4954431;28;20525;-76
2022/11/18 04:54:25;;;;;;;37.75;28.10;;;6.80;99.90;;;;;;4970486;28;20116;-77
2022/11/18 04:56:51;;;;;;;38.65;27.25;;;7.10;99.90;;;;;;4970196;28;20623;-77
2022/11/18 04:59:19;;;;;;;37.60;28.02;;;6.90;99.90;;;;;;4987329;28;20137;-77
2022/11/18 05:01:45;;;;;;;34.97;25.58;;;6.70;99.90;;;;;;4968949;28;20089;-76
2022/11/18 05:04:13;;;;;;;42.35;27.08;;;6.80;99.90;;;;;;4987442;28;20559;-76
2022/11/18 05:06:39;;;;;;;37.28;28.35;;;6.80;99.90;;;;;;4987504;28;20125;-77
2022/11/18 05:09:05;;;;;;;39.13;27.00;;;7.10;99.90;;;;;;4988062;28;20574;-77
2022/11/18 05:14:16;;;;;;;39.28;26.50;;;6.90;99.90;;;;;;4969770;28;20101;-77
2022/11/18 05:16:41;;;;;;;34.78;26.13;;;7.10;99.90;;;;;;4968577;28;20048;-77
2022/11/18 05:19:07;;;;;;;33.75;24.98;;;6.70;99.90;;;;;;4969905;28;20038;-77
2022/11/18 05:21:33;;;;;;;37.38;24.67;;;7.10;99.90;;;;;;4954038;28;20244;-76
2022/11/18 05:23:59;;;;;;;32.17;24.77;;;6.70;99.90;;;;;;4987155;28;20034;-76
2022/11/18 05:26:26;;;;;;;35.60;26.30;;;7.00;99.90;;;;;;4969707;28;20061;-76
2022/11/18 05:28:51;;;;;;;32.97;23.10;;;6.80;99.90;;;;;;4969201;28;20109;-76
2022/11/18 05:31:17;;;;;;;37.83;27.25;;;6.90;99.90;;;;;;4969352;28;20121;-77
2022/11/18 05:33:43;;;;;;;37.35;24.45;;;6.70;99.90;;;;;;4968170;28;20057;-76
2022/11/18 05:36:12;;;;;;;35.00;24.55;;;6.90;99.90;;;;;;4987606;28;20047;-77
2022/11/18 05:38:38;;;;;;;33.42;23.88;;;6.70;99.90;;;;;;4969152;28;20472;-77
2022/11/18 05:41:04;;;;;;;36.97;23.92;;;6.70;99.90;;;;;;4969527;28;20126;-76
2022/11/18 05:43:30;;;;;;;36.38;25.98;;;6.80;99.90;;;;;;4953414;28;20046;-76
2022/11/18 05:45:57;;;;;;;37.75;25.85;;;7.10;99.90;;;;;;4969287;28;20065;-76
2022/11/18 05:48:23;;;;;;;34.85;23.90;;;6.80;99.90;;;;;;4967726;28;20046;-76
2022/11/18 05:50:50;;;;;;;40.33;27.67;;;6.80;99.90;;;;;;4986678;28;20046;-76
2022/11/18 05:53:18;;;;;;;31.70;23.02;;;7.10;99.90;;;;;;4969531;28;20498;-77
2022/11/18 05:55:53;;;;;;;36.35;25.52;;;6.70;99.90;;;;;;4968861;28;20077;-77
2022/11/18 05:58:19;;;;;;;34.58;23.33;;;6.60;99.90;;;;;;4969111;28;20462;-76
2022/11/18 06:00:47;;;;;;;35.85;24.10;;;7.00;99.90;;;;;;4968581;28;20145;-76
2022/11/18 06:03:21;;;;;;;34.03;25.77;;;6.60;99.90;;;;;;4952115;28;20057;-75
2022/11/18 06:05:48;;;;;;;33.58;22.67;;;7.00;99.90;;;;;;4986081;28;20054;-76
2022/11/18 06:08:15;;;;;;;37.80;23.52;;;7.10;99.90;;;;;;4969097;28;20516;-75
2022/11/18 06:10:43;;;;;;;34.20;24.13;;;6.80;99.90;;;;;;4986055;28;20054;-76
2022/11/18 06:13:16;;;;;;;36.58;25.83;;;6.90;99.90;;;;;;4968928;28;20122;-76
2022/11/18 06:15:43;;;;;;;32.80;22.33;;;6.90;99.90;;;;;;4985816;28;20104;-76
2022/11/18 06:18:17;;;;;;;34.70;24.10;;;7.00;99.90;;;;;;4968078;28;20046;-76
2022/11/18 06:20:43;;;;;;;30.63;21.98;;;6.60;99.90;;;;;;4968587;28;20101;-76
2022/11/18 06:23:09;;;;;;;32.53;23.80;;;6.80;99.90;;;;;;4968851;28;20046;-76
2022/11/18 06:25:39;;;;;;;36.70;24.92;;;6.80;99.90;;;;;;4952719;28;20054;-77
2022/11/18 06:28:05;;;;;;;33.80;22.65;;;7.00;99.90;;;;;;4968990;28;20034;-76
2022/11/18 06:30:31;;;;;;;31.63;24.52;;;6.60;99.90;;;;;;4986556;28;20050;-76
2022/11/18 06:32:57;;;;;;;39.08;23.58;;;6.60;99.90;;;;;;4967773;28;20050;-76
2022/11/18 06:35:22;;;;;;;32.08;24.42;;;6.60;99.90;;;;;;4952712;28;20404;-77
2022/11/18 06:37:48;;;;;;;33.45;22.40;;;6.90;99.90;;;;;;4951990;28;20042;-76
2022/11/18 06:40:14;;;;;;;36.03;24.60;;;6.70;99.90;;;;;;4986152;28;20050;-77
2022/11/18 06:45:23;;;;;;;34.42;25.23;;;6.60;99.90;;;;;;4969443;28;20061;-75
2022/11/18 06:47:49;;;;;;;32.55;24.42;;;6.70;99.90;;;;;;4984631;28;20050;-76
2022/11/18 06:50:15;;;;;;;32.28;23.40;;;6.80;99.90;;;;;;4968585;28;20042;-76
2022/11/18 06:52:41;;;;;;;38.33;27.27;;;6.60;99.90;;;;;;4968067;28;20085;-76
2022/11/18 06:55:07;;;;;;;37.15;25.17;;;6.70;99.90;;;;;;4952707;28;20133;-77
2022/11/18 06:57:33;;;;;;;46.45;24.27;;;6.60;99.90;;;;;;4968502;28;20030;-76
2022/11/18 06:59:59;;;;;;;33.38;25.02;;;7.00;99.90;;;;;;4968049;28;20054;-76
2022/11/18 07:02:24;;;;;;;36.85;25.15;;;6.60;99.90;;;;;;4985135;28;20045;-76
2022/11/18 07:04:50;;;;;;;36.92;24.75;;;6.50;99.90;;;;;;4967441;28;20709;-76
2022/11/18 07:07:16;;;;;;;34.75;24.23;;;6.50;99.90;;;;;;4986072;28;20046;-75
2022/11/18 07:09:41;;;;;;;38.13;23.70;;;6.90;99.90;;;;;;4967956;28;20038;-76
2022/11/18 07:12:07;;;;;;;34.40;22.30;;;6.50;99.90;;;;;;4985755;28;20057;-75
2022/11/18 07:14:33;;;;;;;36.03;23.23;;;6.60;99.90;;;;;;4952766;28;20074;-76
2022/11/18 07:16:58;;;;;;;35.88;23.17;;;6.70;99.90;;;;;;4966774;28;20509;-76
2022/11/18 07:19:24;;;;;;;41.30;23.63;;;6.40;99.90;;;;;;4951701;28;20400;-76
2022/11/18 07:21:50;;;;;;;30.92;21.38;;;6.70;99.90;;;;;;4985262;28;20475;-76
2022/11/18 07:24:15;;;;;;;34.58;22.50;;;6.60;99.90;;;;;;4967837;28;20101;-76
2022/11/18 07:26:41;;;;;;;33.30;23.17;;;6.40;99.90;;;;;;4967814;28;20116;-75
2022/11/18 07:29:08;;;;;;;37.95;24.45;;;6.40;99.90;;;;;;4967503;28;20038;-76
2022/11/18 07:31:36;;;;;;;33.60;21.90;;;6.60;99.90;;;;;;4967840;28;20078;-75
2022/11/18 07:34:02;;;;;;;39.63;26.00;;;6.70;99.90;;;;;;4985703;28;20066;-76
2022/11/18 07:36:28;;;;;;;41.53;23.98;;;6.80;99.90;;;;;;4985886;28;20047;-76
2022/11/18 07:38:58;;;;;;;33.63;23.92;;;6.60;99.90;;;;;;4967961;28;20051;-76
2022/11/18 07:41:27;;;;;;;36.72;23.10;;;6.70;99.90;;;;;;4968002;28;20190;-76
2022/11/18 07:43:54;;;;;;;32.80;22.88;;;6.80;99.90;;;;;;4951487;28;20042;-76
2022/11/18 07:46:39;;;;;;;31.95;22.55;;;6.80;99.90;;;;;;4967208;28;20058;-76
2022/11/18 07:49:07;;;;;;;36.90;24.05;;;6.60;99.90;;;;;;4968288;28;20046;-75
2022/11/18 07:51:35;;;;;;;35.10;22.35;;;6.60;99.90;;;;;;4968356;28;20133;-76
2022/11/18 07:54:05;;;;;;;35.78;21.38;;;6.40;99.90;;;;;;4968232;28;20057;-76
2022/11/18 07:56:31;;;;;;;34.55;20.83;;;6.50;99.90;;;;;;4953449;28;20112;-75
2022/11/18 07:58:56;;;;;;;36.55;25.17;;;6.40;99.90;;;;;;4988185;28;20046;-75
2022/11/18 08:01:26;;;;;;;32.60;21.58;;;6.30;99.90;;;;;;4969592;28;20050;-77
2022/11/18 08:03:52;;;;;;;32.90;21.37;;;6.50;99.90;;;;;;4954846;28;20061;-77
2022/11/18 08:06:18;;;;;;;40.17;24.67;;;6.70;99.90;;;;;;4988841;28;20313;-76
2022/11/18 08:08:44;;;;;;;35.17;22.98;;;6.60;99.90;;;;;;4988518;28;20103;-76
2022/11/18 08:11:13;;;;;;;38.10;21.67;;;6.40;99.90;;;;;;4971004;28;20053;-76
2022/11/18 08:13:38;;;;;;;36.30;22.75;;;6.40;99.90;;;;;;4988076;28;20030;-77
2022/11/18 08:16:15;;;;;;;39.25;20.95;;;6.50;99.90;;;;;;4970336;28;20046;-76
2022/11/18 08:18:41;;;;;;;36.63;22.63;;;6.40;99.90;;;;;;4988412;28;20054;-76
2022/11/18 08:21:06;;;;;;;35.03;22.67;;;6.40;99.90;;;;;;4970772;28;20059;-76
2022/11/18 08:23:32;;;;;;;39.92;23.08;;;6.40;99.90;;;;;;4970706;28;20053;-76
2022/11/18 08:26:07;;;;;;;39.30;23.33;;;6.50;99.90;;;;;;4970233;28;20042;-77
2022/11/18 08:28:33;;;;;;;38.53;21.88;;;6.40;99.90;;;;;;4971134;28;20201;-76
2022/11/18 08:30:59;;;;;;;33.65;20.45;;;6.40;99.90;;;;;;4953766;28;20129;-76
2022/11/18 08:33:24;;;;;;;34.95;20.02;;;6.30;99.90;;;;;;4971058;28;20038;-76
2022/11/18 08:35:50;;;;;;;31.23;18.73;;;6.30;99.90;;;;;;4987937;28;20113;-76
2022/11/18 08:38:16;;;;;;;33.45;19.33;;;6.40;99.90;;;;;;4970927;28;20444;-76
2022/11/18 08:40:46;;;;;;;29.48;18.63;;;6.60;99.90;;;;;;4987811;28;20042;-75
2022/11/18 08:43:12;;;;;;;33.85;20.27;;;6.30;99.90;;;;;;4954725;28;20081;-76
2022/11/18 08:45:41;;;;;;;28.42;17.70;;;6.40;99.90;;;;;;4955108;28;20475;-75
2022/11/18 08:48:07;;;;;;;33.13;18.35;;;6.40;99.90;;;;;;4974217;28;20038;-75
2022/11/18 08:50:32;;;;;;;30.42;19.67;;;6.40;99.90;;;;;;4973113;28;20077;-75
2022/11/18 08:52:58;;;;;;;31.70;18.17;;;6.20;99.90;;;;;;4956581;28;20049;-75
2022/11/18 08:55:24;;;;;;;23.50;17.33;;;6.20;99.90;;;;;;4971582;28;20066;-74
2022/11/18 08:57:49;;;;;;;32.40;19.17;;;6.30;99.90;;;;;;4987890;28;20097;-75
2022/11/18 09:00:15;;;;;;;28.50;16.30;;;6.60;99.90;;;;;;4988173;28;20532;-76
2022/11/18 09:02:41;;;;;;;30.30;16.17;;;6.60;99.90;;;;;;4986536;28;20049;-76
2022/11/18 09:05:07;;;;;;;21.30;14.98;;;6.70;99.90;;;;;;4970822;28;20456;-76
2022/11/18 09:07:32;;;;;;;24.27;13.77;;;6.50;99.90;;;;;;4954115;28;20054;-76
2022/11/18 09:09:58;;;;;;;22.10;15.65;;;6.50;99.90;;;;;;4970052;28;20108;-75
2022/11/18 09:12:24;;;;;;;19.52;13.73;;;6.60;99.90;;;;;;4970810;28;20116;-76
2022/11/18 09:14:49;;;;;;;22.30;13.38;;;6.70;99.90;;;;;;4987523;28;20132;-76
2022/11/18 09:17:15;;;;;;;20.58;14.70;;;6.60;99.90;;;;;;4987141;28;20122;-75
2022/11/18 09:19:41;;;;;;;22.80;15.02;;;6.40;99.90;;;;;;4969408;28;20045;-76
2022/11/18 09:22:08;;;;;;;25.80;15.98;;;6.40;99.90;;;;;;4988047;28;20058;-76
2022/11/18 09:24:35;;;;;;;26.63;14.77;;;6.50;99.90;;;;;;4954495;28;20120;-76
2022/11/18 09:27:05;;;;;;;22.65;15.32;;;6.60;99.90;;;;;;4987769;28;20413;-76
2022/11/18 09:29:31;;;;;;;19.80;14.43;;;6.60;99.90;;;;;;4970043;28;20116;-76
2022/11/18 09:32:00;;;;;;;24.02;15.30;;;6.60;99.90;;;;;;4985817;28;20041;-76
2022/11/18 09:34:26;;;;;;;23.05;16.15;;;6.50;99.90;;;;;;4970133;28;20108;-75
2022/11/18 09:36:54;;;;;;;23.70;14.70;;;6.50;99.90;;;;;;4987520;28;20037;-76
2022/11/18 09:39:21;;;;;;;19.88;14.98;;;6.70;99.90;;;;;;4987194;28;20042;-76
2022/11/18 09:41:59;;;;;;;21.45;14.82;;;6.60;99.90;;;;;;4969565;28;20101;-76
2022/11/18 09:44:31;;;;;;;20.52;13.82;;;6.50;99.90;;;;;;4953615;28;20078;-75
2022/11/18 09:47:18;;;;;;;18.52;13.30;;;6.40;99.90;;;;;;4968851;28;20124;-76
2022/11/18 09:49:45;;;;;;;20.50;14.43;;;6.40;99.90;;;;;;4969074;28;20050;-75
2022/11/18 09:52:30;;;;;;;18.38;14.73;;;6.50;99.90;;;;;;4986809;28;20081;-75
2022/11/18 09:54:58;;;;;;;20.40;14.13;;;6.60;99.90;;;;;;4986523;28;20058;-76
2022/11/18 09:57:30;;;;;;;18.40;12.35;;;6.40;99.90;;;;;;4970230;28;20054;-77
2022/11/18 09:59:56;;;;;;;19.15;13.55;;;6.50;99.90;;;;;;4952459;28;20054;-76
2022/11/18 10:02:53;;;;;;;24.75;13.90;;;6.50;99.90;;;;;;4968577;28;20508;-75
2022/11/18 10:05:23;;;;;;;24.40;13.90;;;6.40;99.90;;;;;;4969743;28;20094;-76
2022/11/18 10:08:21;;;;;;;24.33;14.60;;;6.50;99.90;;;;;;4972315;28;20184;-76
2022/11/18 10:11:08;;;;;;;24.35;14.50;;;6.70;99.90;;;;;;4968644;28;20073;-76
2022/11/18 10:13:52;;;;;;;20.55;14.35;;;6.50;99.90;;;;;;4984833;28;20464;-75
2022/11/18 10:16:38;;;;;;;18.00;13.73;;;6.70;99.90;;;;;;4985505;28;20442;-76
2022/11/18 10:19:22;;;;;;;20.48;14.43;;;6.70;99.90;;;;;;4968135;28;20133;-76
2022/11/18 10:21:59;;;;;;;17.83;12.77;;;6.70;99.90;;;;;;4985929;28;20112;-76
2022/11/18 10:24:31;;;;;;;17.85;12.23;;;6.60;99.90;;;;;;4968293;28;20069;-76
2022/11/18 10:26:59;;;;;;;15.55;12.82;;;6.80;99.90;;;;;;4967462;28;20042;-76
2022/11/18 10:29:26;;;;;;;18.52;10.85;;;6.50;99.90;;;;;;4968623;28;20046;-76
2022/11/18 10:32:01;;;;;;;17.33;12.48;;;6.60;99.90;;;;;;4967679;28;20034;-77
2022/11/18 10:34:27;;;;;;;16.88;12.90;;;6.40;99.90;;;;;;4968264;28;20051;-75
2022/11/18 10:37:01;;;;;;;21.85;12.30;;;6.70;99.90;;;;;;4968286;28;20110;-76
2022/11/18 10:39:27;;;;;;;13.25;11.18;;;6.50;99.90;;;;;;4967818;28;20066;-77
2022/11/18 10:41:59;;;;;;;12.82;10.90;;;6.40;99.90;;;;;;4985635;28;20061;-76
2022/11/18 10:44:41;;;;;;;17.45;11.90;;;6.50;99.90;;;;;;4985914;28;20038;-75
2022/11/18 10:47:28;;;;;;;15.07;10.68;;;6.70;99.90;;;;;;4967551;28;20054;-75
2022/11/18 10:50:18;;;;;;;17.48;11.35;;;6.50;99.90;;;;;;4987153;28;20046;-75
2022/11/18 10:52:52;;;;;;;21.90;13.18;;;6.30;99.90;;;;;;4984860;28;20476;-76
2022/11/18 10:55:22;;;;;;;18.42;11.55;;;6.40;99.90;;;;;;4967756;28;20054;-76
2022/11/18 10:57:51;;;;;;;13.40;10.90;;;6.50;99.90;;;;;;4967771;28;20038;-77
2022/11/18 11:00:40;;;;;;;15.05;10.57;;;6.50;99.90;;;;;;4968721;28;20054;-76
2022/11/18 11:03:22;;;;;;;14.55;12.70;;;6.40;99.90;;;;;;4986742;28;20497;-77
2022/11/18 11:06:08;;;;;;;14.07;10.60;;;6.20;99.90;;;;;;4952850;28;20051;-75
2022/11/18 11:08:33;;;;;;;15.18;11.35;;;6.30;99.90;;;;;;4968760;28;20150;-75
2022/11/18 11:10:59;;;;;;;21.98;11.35;;;6.50;99.90;;;;;;4968841;28;20058;-76
2022/11/18 11:13:29;;;;;;;12.88;10.05;;;6.20;99.90;;;;;;4967752;28;20061;-76
2022/11/18 11:16:00;;;;;;;15.35;10.38;;;6.40;99.90;;;;;;4968252;28;20459;-76
2022/11/18 11:18:41;;;;;;;14.50;10.55;;;6.40;99.90;;;;;;4986179;28;20150;-76
2022/11/18 11:21:18;;;;;;;13.68;10.05;;;6.20;99.90;;;;;;4968638;28;20102;-76
2022/11/18 11:23:45;;;;;;;13.70;9.95;;;6.20;99.90;;;;;;4969661;28;20161;-77
2022/11/18 11:26:41;;;;;;;15.82;10.85;;;6.10;99.90;;;;;;4985002;28;20042;-75
2022/11/18 11:29:35;;;;;;;19.55;12.80;;;6.30;99.90;;;;;;4968092;28;20049;-76
2022/11/18 11:32:24;;;;;;;17.20;11.00;;;6.00;99.90;;;;;;4969466;28;20050;-76
2022/11/18 11:35:15;;;;;;;15.77;10.68;;;6.10;99.90;;;;;;4972001;28;20351;-75
2022/11/18 11:38:10;;;;;;;15.30;9.52;;;6.20;99.90;;;;;;4970840;28;20054;-76
2022/11/18 11:40:51;;;;;;;16.23;12.70;;;6.10;99.90;;;;;;4971634;28;20050;-76
2022/11/18 11:43:28;;;;;;;24.85;13.88;;;6.10;99.90;;;;;;4955425;28;20058;-79
2022/11/18 11:46:03;;;;;;;19.35;12.35;;;6.20;99.90;;;;;;4987894;28;20683;-76
2022/11/18 11:48:49;;;;;;;18.80;12.00;;;6.20;99.90;;;;;;4988540;28;20058;-76
2022/11/18 11:51:24;;;;;;;18.27;11.68;;;6.30;99.90;;;;;;4989451;28;20046;-76
2022/11/18 11:54:12;;;;;;;19.27;10.73;;;6.40;99.90;;;;;;4955073;28;20060;-76
2022/11/18 11:57:00;;;;;;;17.23;11.57;;;5.90;99.90;;;;;;4971050;28;20050;-76
2022/11/18 11:59:56;;;;;;;19.52;14.05;;;6.00;99.90;;;;;;4970529;28;20255;-76
2022/11/18 12:02:42;;;;;;;17.77;12.63;;;6.00;99.90;;;;;;4987317;28;20112;-76
2022/11/18 12:05:25;;;;;;;16.20;11.13;;;6.00;99.90;;;;;;4968241;28;20050;-76
2022/11/18 12:08:04;;;;;;;16.88;11.05;;;6.00;99.90;;;;;;4967712;28;20054;-76
2022/11/18 12:10:45;;;;;;;16.88;11.63;;;6.00;99.90;;;;;;4951599;28;20405;-75
2022/11/18 12:13:13;;;;;;;;;;;6.00;99.90;;;;;;4968396;28;20081;-78
2022/11/18 12:15:46;;;;;;;15.57;9.95;;;5.90;99.90;;;;;;4968342;28;20002;-76
2022/11/18 12:18:21;;;;;;;16.65;10.82;;;5.80;99.90;;;;;;4967716;28;20117;-76
2022/11/18 12:20:49;;;;;;;16.67;10.93;;;5.90;99.90;;;;;;4968786;28;20046;-77
2022/11/18 12:23:18;;;;;;;15.25;10.23;;;5.80;99.90;;;;;;4968564;28;20046;-77
2022/11/18 12:26:08;;;;;;;13.43;8.63;;;6.00;99.90;;;;;;4951133;28;20399;-76
2022/11/18 12:28:40;;;;;;;11.40;7.65;;;5.80;99.90;;;;;;4967148;28;20057;-77
2022/11/18 12:31:14;;;;;;;13.70;10.45;;;5.80;99.90;;;;;;4968007;28;20047;-76
2022/11/18 12:34:02;;;;;;;14.95;9.20;;;5.80;99.90;;;;;;4966864;28;20042;-77
2022/11/18 12:36:39;;;;;;;17.73;9.02;;;5.80;99.90;;;;;;4968322;28;20039;-77
2022/11/18 12:39:23;;;;;;;15.32;9.63;;;5.90;99.90;;;;;;4968390;28;20062;-76
2022/11/18 12:44:38;;;;;;;18.33;11.07;;;5.90;99.90;;;;;;4968363;28;20510;-76
2022/11/18 12:47:10;;;;;;;13.75;9.00;;;5.80;99.90;;;;;;4966010;28;20055;-76
2022/11/18 12:49:35;;;;;;;15.45;11.95;;;5.60;99.90;;;;;;4966905;28;20085;-77
2022/11/18 12:52:22;;;;;;;17.38;12.30;;;5.70;99.90;;;;;;4967346;28;20421;-77
2022/11/18 12:54:48;;;;;;;19.65;12.55;;;5.80;99.90;;;;;;4966427;28;20355;-76
2022/11/18 12:57:33;;;;;;;20.35;12.13;;;5.70;99.90;;;;;;4969425;28;20035;-76
2022/11/18 13:00:26;;;;;;;16.83;11.45;;;5.60;99.90;;;;;;4951265;28;20510;-76
2022/11/18 13:03:00;;;;;;;17.83;12.23;;;5.70;99.90;;;;;;4967850;28;20393;-77
2022/11/18 13:05:27;;;;;;;23.55;13.25;;;5.40;99.90;;;;;;4966954;28;20681;-77
2022/11/18 13:08:12;;;;;;;16.05;10.73;;;5.50;99.90;;;;;;4969050;28;20051;-76
2022/11/18 13:17:50;;;;;;;18.25;11.38;;;5.50;99.90;;;;;;4968517;28;20352;-77